Sch-135 Galibier — PBIB — position and weather

sailwx.info

Track history (hours):
 
Tides and Currents Weather Stations Pressure Air Temp Water Temp Dewpoint Dewpoint Depression Visibility Wind Speed Wind Dir Waves Ship Positions

Sch-135 Galibier

Last reported at 2016-Jun-25 20:33 UTC. Time now 2016-Jun-25 21:30 UTC.
Position N 52°06' E 004°16'.

Length 35 m.

MMSI: 244630637.

Date/timePositionNaut miles runAvg speedWind from/ knotsBaromVisibWave heightAir tempDewpointWater temp
2016-Jun-25 20:33N 52°06' E 004°16'0 0.0
2016-Jun-25 19:33N 52°06' E 004°16'0 0.0
2016-Jun-25 18:33N 52°06' E 004°16'0 0.0
2016-Jun-25 17:33N 52°06' E 004°16'0 0.0
2016-Jun-25 16:33N 52°06' E 004°16'0 0.0
2016-Jun-25 15:33N 52°06' E 004°16'0 0.0
2016-Jun-25 14:33N 52°06' E 004°16'0 0.0
2016-Jun-25 13:33N 52°06' E 004°16'0 0.0
2016-Jun-25 12:33N 52°06' E 004°16'0 0.0
2016-Jun-25 11:33N 52°06' E 004°16'0 0.0
2016-Jun-25 10:33N 52°06' E 004°16'0 0.0
2016-Jun-25 09:33N 52°06' E 004°16'0 0.0
2016-Jun-25 08:33N 52°06' E 004°16'0 0.0
2016-Jun-25 07:33N 52°06' E 004°16'0 0.0
2016-Jun-25 06:33N 52°06' E 004°16'0 0.0
2016-Jun-25 05:33N 52°06' E 004°16'0 0.0
2016-Jun-25 04:33N 52°06' E 004°16'0 0.0
2016-Jun-25 03:33N 52°06' E 004°16'0 0.0
2016-Jun-25 02:33N 52°06' E 004°16'0 0.0
2016-Jun-25 01:33N 52°06' E 004°16'0 0.0
2016-Jun-25 00:33N 52°06' E 004°16'0 0.0
2016-Jun-24 23:26N 52°06' E 004°16'0 0.0
2016-Jun-24 22:33N 52°06' E 004°16'0 0.0
2016-Jun-24 21:33N 52°06' E 004°16'0 0.0
2016-Jun-24 20:33N 52°06' E 004°16'0 0.0
2016-Jun-24 19:33N 52°06' E 004°16'0 0.0
2016-Jun-24 18:33N 52°06' E 004°16'0 0.0
2016-Jun-24 17:33N 52°06' E 004°16'0 0.0
2016-Jun-24 16:33N 52°06' E 004°16'0 0.0
2016-Jun-24 15:33N 52°06' E 004°16'0 0.0
2016-Jun-24 14:33N 52°06' E 004°16'0 0.0
2016-Jun-24 13:33N 52°06' E 004°16'0 0.0
2016-Jun-24 12:33N 52°06' E 004°16'0 0.0
2016-Jun-24 11:33N 52°06' E 004°16'0 0.0
2016-Jun-24 10:33N 52°06' E 004°16'0 0.0
2016-Jun-24 09:33N 52°06' E 004°16'0 0.0
2016-Jun-24 08:33N 52°06' E 004°16'0 0.1
2016-Jun-24 07:33N 52°06' E 004°16'0 0.0
2016-Jun-24 04:33N 52°06' E 004°16'0 0.0
2016-Jun-24 03:33N 52°06' E 004°16'0 0.0
2016-Jun-24 02:33N 52°06' E 004°16'0 0.0
2016-Jun-24 01:33N 52°06' E 004°16'0 0.0
2016-Jun-24 00:33N 52°06' E 004°16'0 0.1
2016-Jun-23 23:33N 52°06' E 004°16'0 0.0
2016-Jun-23 22:33N 52°06' E 004°16'4 3.6
2016-Jun-23 21:33N 52°10' E 004°16'1110.8
2016-Jun-23 20:33N 52°20' E 004°15'9 9.4
2016-Jun-23 19:33N 52°29' E 004°09'77 3.8
2016-Jun-22 23:03N 53°38' E 003°13'510.8
2016-Jun-22 22:33N 53°42' E 003°06'1110.7
2016-Jun-22 21:33N 53°50' E 002°54'1110.8
2016-Jun-22 20:33N 53°58' E 002°42'2 1.8
2016-Jun-22 19:29N 53°59' E 002°39'1 1.1
2016-Jun-22 18:33N 53°59' E 002°38'1 0.5
2016-Jun-22 17:33N 53°58' E 002°37'2 1.6
2016-Jun-22 16:33N 53°57' E 002°39'2 2.1
2016-Jun-22 15:33N 53°56' E 002°42'2 1.6
2016-Jun-22 14:33N 53°55' E 002°39'1 0.8
2016-Jun-22 13:33N 53°54' E 002°40'0 0.5
2016-Jun-22 12:33N 53°54' E 002°41'0 0.5
2016-Jun-22 11:33N 53°54' E 002°41'1 1.4
2016-Jun-22 10:33N 53°54' E 002°39'8 7.6
2016-Jun-22 09:33N 53°60' E 002°47'1 1.4
2016-Jun-22 08:33N 53°60' E 002°45'0 0.2
2016-Jun-22 07:33N 53°60' E 002°45'1 1.0
2016-Jun-22 06:33N 53°60' E 002°43'2 1.6
2016-Jun-22 05:33N 53°59' E 002°41'4 3.6
2016-Jun-22 04:33N 54°01' E 002°46'0 0.3
2016-Jun-22 03:33N 54°01' E 002°47'1 1.4
2016-Jun-22 02:33N 54°01' E 002°49'1 1.2
2016-Jun-22 01:33N 54°00' E 002°48'3 2.6
2016-Jun-22 00:32N 54°03' E 002°50'1 0.8
2016-Jun-21 23:33N 54°02' E 002°49'6 6.4
2016-Jun-21 22:33N 54°07' E 002°56'14 5.9
2016-Jun-21 20:16N 54°17' E 003°11'2 2.6
2016-Jun-21 19:32N 54°17' E 003°08'74 3.8
2016-Jun-21 00:13N 53°15' E 004°14'10 9.7
2016-Jun-20 23:13N 53°07' E 004°23'6 9.5
2016-Jun-20 22:33N 53°01' E 004°29'9 9.0
2016-Jun-20 21:33N 52°55' E 004°39'5 5.5
2016-Jun-20 20:33N 52°57' E 004°47'6 5.9
2016-Jun-20 19:34N 52°54' E 004°39'17 0.9
2016-Jun-20 01:33N 52°44' E 004°16'1111.0
2016-Jun-20 00:33N 52°33' E 004°16'1010.0
2016-Jun-19 23:33N 52°23' E 004°15'10 9.6
2016-Jun-19 22:34N 52°14' E 004°16'8 7.7
2016-Jun-19 21:33N 52°06' E 004°16'0 0.0
2016-Jun-19 20:33N 52°06' E 004°16'0 0.0
2016-Jun-19 19:33N 52°06' E 004°16'0 0.0
2016-Jun-19 18:33N 52°06' E 004°16'0 0.0
2016-Jun-19 17:33N 52°06' E 004°16'0 0.0
2016-Jun-19 16:33N 52°06' E 004°16'0 0.0
2016-Jun-19 15:33N 52°06' E 004°16'0 0.0
2016-Jun-19 14:33N 52°06' E 004°16'0 0.0
2016-Jun-19 13:33N 52°06' E 004°16'0 0.0
2016-Jun-19 12:33N 52°06' E 004°16'0 0.0
2016-Jun-19 11:33N 52°06' E 004°16'0 0.0
2016-Jun-19 10:33N 52°06' E 004°16'0 0.0
2016-Jun-19 09:33N 52°06' E 004°16'0 0.0
2016-Jun-19 08:33N 52°06' E 004°16'0 0.0
2016-Jun-19 07:33N 52°06' E 004°16'0 0.0
2016-Jun-19 06:33N 52°06' E 004°16'0 0.0
2016-Jun-19 05:33N 52°06' E 004°16'0 0.0
2016-Jun-19 04:33N 52°06' E 004°16'0 0.0
2016-Jun-19 03:33N 52°06' E 004°16'0 0.0
2016-Jun-19 02:33N 52°06' E 004°16'0 0.0
2016-Jun-19 01:33N 52°06' E 004°16'0 0.0
2016-Jun-19 00:33N 52°06' E 004°16'0 0.0
2016-Jun-18 23:33N 52°06' E 004°16'0 0.0
2016-Jun-18 22:33N 52°06' E 004°16'0 0.0
2016-Jun-18 21:33N 52°06' E 004°16'0 0.0
2016-Jun-18 20:33N 52°06' E 004°16'0 0.0
2016-Jun-18 19:33N 52°06' E 004°16'0 0.0
2016-Jun-18 18:33N 52°06' E 004°16'0 0.0
2016-Jun-18 17:34N 52°06' E 004°16'0 0.0
2016-Jun-18 16:33N 52°06' E 004°16'0 0.0
2016-Jun-18 15:33N 52°06' E 004°16'0 0.0
2016-Jun-18 14:33N 52°06' E 004°16'0 0.0
2016-Jun-18 13:33N 52°06' E 004°16'0 0.0
2016-Jun-18 12:33N 52°06' E 004°16'0 0.0
2016-Jun-18 11:33N 52°06' E 004°16'0 0.0
2016-Jun-18 10:33N 52°06' E 004°16'0 0.0
2016-Jun-18 09:33N 52°06' E 004°16'0 0.0
2016-Jun-18 08:33N 52°06' E 004°16'0 0.0
2016-Jun-18 07:33N 52°06' E 004°16'0 0.0
2016-Jun-18 06:33N 52°06' E 004°16'0 0.0
2016-Jun-18 05:33N 52°06' E 004°16'0 0.0
2016-Jun-18 04:33N 52°06' E 004°16'0 0.0
2016-Jun-18 03:33N 52°06' E 004°16'0 0.0
2016-Jun-18 02:33N 52°06' E 004°16'0 0.0
2016-Jun-18 01:33N 52°06' E 004°16'0 0.0
2016-Jun-18 00:33N 52°06' E 004°16'0 0.0
2016-Jun-17 23:33N 52°06' E 004°16'0 0.0
2016-Jun-17 22:33N 52°06' E 004°16'0 0.0
2016-Jun-17 21:33N 52°06' E 004°16'0 0.0
2016-Jun-17 20:33N 52°06' E 004°16'0 0.0
2016-Jun-17 19:33N 52°06' E 004°16'0 0.0
2016-Jun-17 18:33N 52°06' E 004°16'0 0.0
2016-Jun-17 17:33N 52°06' E 004°16'0 0.0
2016-Jun-17 16:33N 52°06' E 004°16'0 0.0
2016-Jun-17 15:33N 52°06' E 004°16'0 0.0
2016-Jun-17 14:33N 52°06' E 004°16'0 0.0
2016-Jun-17 13:33N 52°06' E 004°16'0 0.0
2016-Jun-17 12:33N 52°06' E 004°16'0 0.0
2016-Jun-17 11:33N 52°06' E 004°16'0 0.0
2016-Jun-17 10:33N 52°06' E 004°16'0 0.0
2016-Jun-17 09:33N 52°06' E 004°16'0 0.0
2016-Jun-17 08:33N 52°06' E 004°16'0 0.0
2016-Jun-17 07:33N 52°06' E 004°16'0 0.0
2016-Jun-17 06:33N 52°06' E 004°16'0 0.0
2016-Jun-17 05:33N 52°06' E 004°16'0 0.0
2016-Jun-17 04:33N 52°06' E 004°16'0 0.2
2016-Jun-17 03:33N 52°06' E 004°16'0 0.0
2016-Jun-17 02:33N 52°06' E 004°16'0 0.0
2016-Jun-17 01:33N 52°06' E 004°16'9 8.7
2016-Jun-17 00:34N 52°14' E 004°10'8 8.3
2016-Jun-16 23:33N 52°21' E 004°02'7 7.0
2016-Jun-16 22:31N 52°27' E 003°56'10 9.4
2016-Jun-16 21:31N 52°35' E 003°48'1010.4
2016-Jun-16 20:33N 52°45' E 003°45'5510.7
2016-Jun-16 15:25N 53°34' E 003°06'910.2
2016-Jun-16 14:33N 53°42' E 002°58'10 9.8
2016-Jun-16 13:33N 53°51' E 002°50'10 9.6
2016-Jun-16 12:33N 53°60' E 002°45'2 1.5
2016-Jun-16 11:33N 54°01' E 002°46'0 0.1
2016-Jun-16 09:17N 54°01' E 002°47'1 1.2
2016-Jun-16 08:33N 54°01' E 002°48'3 2.9
2016-Jun-16 07:33N 53°59' E 002°45'1 0.6
2016-Jun-16 06:33N 53°59' E 002°44'1 1.0
2016-Jun-16 05:33N 53°59' E 002°42'0 0.1
2016-Jun-16 04:28N 53°59' E 002°42'1 0.7
2016-Jun-16 03:33N 53°59' E 002°41'1 1.3
2016-Jun-16 02:33N 53°59' E 002°39'0 0.5
2016-Jun-16 01:33N 53°59' E 002°40'3 2.6
2016-Jun-16 00:33N 54°01' E 002°43'5 4.9
2016-Jun-15 23:33N 54°05' E 002°49'  
Track history (hours):
 
Tides and Currents Weather Stations Pressure Air Temp Water Temp Dewpoint Dewpoint Depression Visibility Wind Speed Wind Dir Waves Ship Positions

Sch-135 Galibier

Last reported at 2016-Jun-25 20:33 UTC. Time now 2016-Jun-25 21:30 UTC.
Position N 52°06' E 004°16'.

Length 35 m.

MMSI: 244630637.

Date/timePositionNaut miles runAvg speedWind from/ knotsBaromVisibWave heightAir tempDewpointWater temp
2016-Jun-25 20:33N 52°06' E 004°16'0 0.0
2016-Jun-25 19:33N 52°06' E 004°16'0 0.0
2016-Jun-25 18:33N 52°06' E 004°16'0 0.0
2016-Jun-25 17:33N 52°06' E 004°16'0 0.0
2016-Jun-25 16:33N 52°06' E 004°16'0 0.0
2016-Jun-25 15:33N 52°06' E 004°16'0 0.0
2016-Jun-25 14:33N 52°06' E 004°16'0 0.0
2016-Jun-25 13:33N 52°06' E 004°16'0 0.0
2016-Jun-25 12:33N 52°06' E 004°16'0 0.0
2016-Jun-25 11:33N 52°06' E 004°16'0 0.0
2016-Jun-25 10:33N 52°06' E 004°16'0 0.0
2016-Jun-25 09:33N 52°06' E 004°16'0 0.0
2016-Jun-25 08:33N 52°06' E 004°16'0 0.0
2016-Jun-25 07:33N 52°06' E 004°16'0 0.0
2016-Jun-25 06:33N 52°06' E 004°16'0 0.0
2016-Jun-25 05:33N 52°06' E 004°16'0 0.0
2016-Jun-25 04:33N 52°06' E 004°16'0 0.0
2016-Jun-25 03:33N 52°06' E 004°16'0 0.0
2016-Jun-25 02:33N 52°06' E 004°16'0 0.0
2016-Jun-25 01:33N 52°06' E 004°16'0 0.0
2016-Jun-25 00:33N 52°06' E 004°16'0 0.0
2016-Jun-24 23:26N 52°06' E 004°16'0 0.0
2016-Jun-24 22:33N 52°06' E 004°16'0 0.0
2016-Jun-24 21:33N 52°06' E 004°16'0 0.0
2016-Jun-24 20:33N 52°06' E 004°16'0 0.0
2016-Jun-24 19:33N 52°06' E 004°16'0 0.0
2016-Jun-24 18:33N 52°06' E 004°16'0 0.0
2016-Jun-24 17:33N 52°06' E 004°16'0 0.0
2016-Jun-24 16:33N 52°06' E 004°16'0 0.0
2016-Jun-24 15:33N 52°06' E 004°16'0 0.0
2016-Jun-24 14:33N 52°06' E 004°16'0 0.0
2016-Jun-24 13:33N 52°06' E 004°16'0 0.0
2016-Jun-24 12:33N 52°06' E 004°16'0 0.0
2016-Jun-24 11:33N 52°06' E 004°16'0 0.0
2016-Jun-24 10:33N 52°06' E 004°16'0 0.0
2016-Jun-24 09:33N 52°06' E 004°16'0 0.0
2016-Jun-24 08:33N 52°06' E 004°16'0 0.1
2016-Jun-24 07:33N 52°06' E 004°16'0 0.0
2016-Jun-24 04:33N 52°06' E 004°16'0 0.0
2016-Jun-24 03:33N 52°06' E 004°16'0 0.0
2016-Jun-24 02:33N 52°06' E 004°16'0 0.0
2016-Jun-24 01:33N 52°06' E 004°16'0 0.0
2016-Jun-24 00:33N 52°06' E 004°16'0 0.1
2016-Jun-23 23:33N 52°06' E 004°16'0 0.0
2016-Jun-23 22:33N 52°06' E 004°16'4 3.6
2016-Jun-23 21:33N 52°10' E 004°16'1110.8
2016-Jun-23 20:33N 52°20' E 004°15'9 9.4
2016-Jun-23 19:33N 52°29' E 004°09'77 3.8
2016-Jun-22 23:03N 53°38' E 003°13'510.8
2016-Jun-22 22:33N 53°42' E 003°06'1110.7
2016-Jun-22 21:33N 53°50' E 002°54'1110.8
2016-Jun-22 20:33N 53°58' E 002°42'2 1.8
2016-Jun-22 19:29N 53°59' E 002°39'1 1.1
2016-Jun-22 18:33N 53°59' E 002°38'1 0.5
2016-Jun-22 17:33N 53°58' E 002°37'2 1.6
2016-Jun-22 16:33N 53°57' E 002°39'2 2.1
2016-Jun-22 15:33N 53°56' E 002°42'2 1.6
2016-Jun-22 14:33N 53°55' E 002°39'1 0.8
2016-Jun-22 13:33N 53°54' E 002°40'0 0.5
2016-Jun-22 12:33N 53°54' E 002°41'0 0.5
2016-Jun-22 11:33N 53°54' E 002°41'1 1.4
2016-Jun-22 10:33N 53°54' E 002°39'8 7.6
2016-Jun-22 09:33N 53°60' E 002°47'1 1.4
2016-Jun-22 08:33N 53°60' E 002°45'0 0.2
2016-Jun-22 07:33N 53°60' E 002°45'1 1.0
2016-Jun-22 06:33N 53°60' E 002°43'2 1.6
2016-Jun-22 05:33N 53°59' E 002°41'4 3.6
2016-Jun-22 04:33N 54°01' E 002°46'0 0.3
2016-Jun-22 03:33N 54°01' E 002°47'1 1.4
2016-Jun-22 02:33N 54°01' E 002°49'1 1.2
2016-Jun-22 01:33N 54°00' E 002°48'3 2.6
2016-Jun-22 00:32N 54°03' E 002°50'1 0.8
2016-Jun-21 23:33N 54°02' E 002°49'6 6.4
2016-Jun-21 22:33N 54°07' E 002°56'14 5.9
2016-Jun-21 20:16N 54°17' E 003°11'2 2.6
2016-Jun-21 19:32N 54°17' E 003°08'74 3.8
2016-Jun-21 00:13N 53°15' E 004°14'10 9.7
2016-Jun-20 23:13N 53°07' E 004°23'6 9.5
2016-Jun-20 22:33N 53°01' E 004°29'9 9.0
2016-Jun-20 21:33N 52°55' E 004°39'5 5.5
2016-Jun-20 20:33N 52°57' E 004°47'6 5.9
2016-Jun-20 19:34N 52°54' E 004°39'17 0.9
2016-Jun-20 01:33N 52°44' E 004°16'1111.0
2016-Jun-20 00:33N 52°33' E 004°16'1010.0
2016-Jun-19 23:33N 52°23' E 004°15'10 9.6
2016-Jun-19 22:34N 52°14' E 004°16'8 7.7
2016-Jun-19 21:33N 52°06' E 004°16'0 0.0
2016-Jun-19 20:33N 52°06' E 004°16'0 0.0
2016-Jun-19 19:33N 52°06' E 004°16'0 0.0
2016-Jun-19 18:33N 52°06' E 004°16'0 0.0
2016-Jun-19 17:33N 52°06' E 004°16'0 0.0
2016-Jun-19 16:33N 52°06' E 004°16'0 0.0
2016-Jun-19 15:33N 52°06' E 004°16'0 0.0
2016-Jun-19 14:33N 52°06' E 004°16'0 0.0
2016-Jun-19 13:33N 52°06' E 004°16'0 0.0
2016-Jun-19 12:33N 52°06' E 004°16'0 0.0
2016-Jun-19 11:33N 52°06' E 004°16'0 0.0
2016-Jun-19 10:33N 52°06' E 004°16'0 0.0
2016-Jun-19 09:33N 52°06' E 004°16'0 0.0
2016-Jun-19 08:33N 52°06' E 004°16'0 0.0
2016-Jun-19 07:33N 52°06' E 004°16'0 0.0
2016-Jun-19 06:33N 52°06' E 004°16'0 0.0
2016-Jun-19 05:33N 52°06' E 004°16'0 0.0
2016-Jun-19 04:33N 52°06' E 004°16'0 0.0
2016-Jun-19 03:33N 52°06' E 004°16'0 0.0
2016-Jun-19 02:33N 52°06' E 004°16'0 0.0
2016-Jun-19 01:33N 52°06' E 004°16'0 0.0
2016-Jun-19 00:33N 52°06' E 004°16'0 0.0
2016-Jun-18 23:33N 52°06' E 004°16'0 0.0
2016-Jun-18 22:33N 52°06' E 004°16'0 0.0
2016-Jun-18 21:33N 52°06' E 004°16'0 0.0
2016-Jun-18 20:33N 52°06' E 004°16'0 0.0
2016-Jun-18 19:33N 52°06' E 004°16'0 0.0
2016-Jun-18 18:33N 52°06' E 004°16'0 0.0
2016-Jun-18 17:34N 52°06' E 004°16'0 0.0
2016-Jun-18 16:33N 52°06' E 004°16'0 0.0
2016-Jun-18 15:33N 52°06' E 004°16'0 0.0
2016-Jun-18 14:33N 52°06' E 004°16'0 0.0
2016-Jun-18 13:33N 52°06' E 004°16'0 0.0
2016-Jun-18 12:33N 52°06' E 004°16'0 0.0
2016-Jun-18 11:33N 52°06' E 004°16'0 0.0
2016-Jun-18 10:33N 52°06' E 004°16'0 0.0
2016-Jun-18 09:33N 52°06' E 004°16'0 0.0
2016-Jun-18 08:33N 52°06' E 004°16'0 0.0
2016-Jun-18 07:33N 52°06' E 004°16'0 0.0
2016-Jun-18 06:33N 52°06' E 004°16'0 0.0
2016-Jun-18 05:33N 52°06' E 004°16'0 0.0
2016-Jun-18 04:33N 52°06' E 004°16'0 0.0
2016-Jun-18 03:33N 52°06' E 004°16'0 0.0
2016-Jun-18 02:33N 52°06' E 004°16'0 0.0
2016-Jun-18 01:33N 52°06' E 004°16'0 0.0
2016-Jun-18 00:33N 52°06' E 004°16'0 0.0
2016-Jun-17 23:33N 52°06' E 004°16'0 0.0
2016-Jun-17 22:33N 52°06' E 004°16'0 0.0
2016-Jun-17 21:33N 52°06' E 004°16'0 0.0
2016-Jun-17 20:33N 52°06' E 004°16'0 0.0
2016-Jun-17 19:33N 52°06' E 004°16'0 0.0
2016-Jun-17 18:33N 52°06' E 004°16'0 0.0
2016-Jun-17 17:33N 52°06' E 004°16'0 0.0
2016-Jun-17 16:33N 52°06' E 004°16'0 0.0
2016-Jun-17 15:33N 52°06' E 004°16'0 0.0
2016-Jun-17 14:33N 52°06' E 004°16'0 0.0
2016-Jun-17 13:33N 52°06' E 004°16'0 0.0
2016-Jun-17 12:33N 52°06' E 004°16'0 0.0
2016-Jun-17 11:33N 52°06' E 004°16'0 0.0
2016-Jun-17 10:33N 52°06' E 004°16'0 0.0
2016-Jun-17 09:33N 52°06' E 004°16'0 0.0
2016-Jun-17 08:33N 52°06' E 004°16'0 0.0
2016-Jun-17 07:33N 52°06' E 004°16'0 0.0
2016-Jun-17 06:33N 52°06' E 004°16'0 0.0
2016-Jun-17 05:33N 52°06' E 004°16'0 0.0
2016-Jun-17 04:33N 52°06' E 004°16'0 0.2
2016-Jun-17 03:33N 52°06' E 004°16'0 0.0
2016-Jun-17 02:33N 52°06' E 004°16'0 0.0
2016-Jun-17 01:33N 52°06' E 004°16'9 8.7
2016-Jun-17 00:34N 52°14' E 004°10'8 8.3
2016-Jun-16 23:33N 52°21' E 004°02'7 7.0
2016-Jun-16 22:31N 52°27' E 003°56'10 9.4
2016-Jun-16 21:31N 52°35' E 003°48'1010.4
2016-Jun-16 20:33N 52°45' E 003°45'5510.7
2016-Jun-16 15:25N 53°34' E 003°06'910.2
2016-Jun-16 14:33N 53°42' E 002°58'10 9.8
2016-Jun-16 13:33N 53°51' E 002°50'10 9.6
2016-Jun-16 12:33N 53°60' E 002°45'2 1.5
2016-Jun-16 11:33N 54°01' E 002°46'0 0.1
2016-Jun-16 09:17N 54°01' E 002°47'1 1.2
2016-Jun-16 08:33N 54°01' E 002°48'3 2.9
2016-Jun-16 07:33N 53°59' E 002°45'1 0.6
2016-Jun-16 06:33N 53°59' E 002°44'1 1.0
2016-Jun-16 05:33N 53°59' E 002°42'0 0.1
2016-Jun-16 04:28N 53°59' E 002°42'1 0.7
2016-Jun-16 03:33N 53°59' E 002°41'1 1.3
2016-Jun-16 02:33N 53°59' E 002°39'0 0.5
2016-Jun-16 01:33N 53°59' E 002°40'3 2.6
2016-Jun-16 00:33N 54°01' E 002°43'5 4.9
2016-Jun-15 23:33N 54°05' E 002°49'  

Dump ship's entire track history